Time;durP1;ratioP1;P1;durP2;ratioP2;P2;SDS_P1;SDS_P2;PMS_P1;PMS_P2;Temp;Humidity;BMP_temperature;BMP_pressure;BME280_temperature;BME280_humidity;BME280_pressure;Samples;Min_cycle;Max_cycle;Signal;HPM_P1;HPM_P2
2023/07/22 00:02:44;;;;;;;13.63;9.73;;;;;;;;;;8327334;28;20053;-86
2023/07/22 00:06:47;;;;;;;14.45;10.35;;;;;;;;;;8325169;28;20060;-88
2023/07/22 00:10:51;;;;;;;18.38;10.27;;;;;;;;;;8339222;28;20045;-87
2023/07/22 00:14:55;;;;;;;15.00;10.05;;;;;;;;;;8325717;28;20057;-88
2023/07/22 00:18:58;;;;;;;15.52;9.98;;;;;;;;;;8325475;28;20466;-87
2023/07/22 00:23:01;;;;;;;18.50;10.60;;;;;;;;;;8351539;28;20420;-87
2023/07/22 00:27:04;;;;;;;13.57;10.05;;;;;;;;;;8325075;28;20791;-86
2023/07/22 00:31:08;;;;;;;15.02;10.77;;;;;;;;;;8339187;28;20567;-88
2023/07/22 00:35:11;;;;;;;15.82;10.27;;;;;;;;;;8349681;28;20504;-88
2023/07/22 00:39:15;;;;;;;15.45;9.20;;;;;;;;;;8307610;28;20049;-87
2023/07/22 00:43:18;;;;;;;13.93;9.50;;;;;;;;;;8324687;28;20125;-88
2023/07/22 00:47:23;;;;;;;11.80;9.50;;;;;;;;;;8324741;28;20098;-87
2023/07/22 00:51:26;;;;;;;16.25;10.43;;;;;;;;;;8324838;28;20145;-87
2023/07/22 00:55:29;;;;;;;12.75;10.35;;;;;;;;;;8324202;28;20045;-88
2023/07/22 00:59:32;;;;;;;16.45;10.40;;;;;;;;;;8337787;28;20124;-87
2023/07/22 01:03:37;;;;;;;16.58;11.52;;;;;;;;;;8324302;28;20052;-88
2023/07/22 01:07:40;;;;;;;17.40;12.07;;;;;;;;;;8324881;28;20120;-87
2023/07/22 01:11:42;;;;;;;17.20;11.30;;;;;;;;;;8343130;28;20055;-87
2023/07/22 01:15:45;;;;;;;18.30;12.00;;;;;;;;;;8324861;28;20050;-87
2023/07/22 01:19:50;;;;;;;15.50;11.77;;;;;;;;;;8356401;28;20609;-87
2023/07/22 01:23:55;;;;;;;16.10;11.50;;;;;;;;;;8331909;28;20041;-87
2023/07/22 01:27:58;;;;;;;17.17;12.00;;;;;;;;;;8334672;28;20049;-88
2023/07/22 01:32:01;;;;;;;18.80;12.55;;;;;;;;;;8329376;28;20057;-87
2023/07/22 01:36:04;;;;;;;17.83;11.52;;;;;;;;;;8329524;28;20061;-87
2023/07/22 01:40:12;;;;;;;18.85;11.95;;;;;;;;;;8329466;28;20097;-86
2023/07/22 01:44:15;;;;;;;16.65;12.02;;;;;;;;;;8342176;28;20136;-87
2023/07/22 01:48:18;;;;;;;18.65;12.27;;;;;;;;;;8328957;28;20049;-86
2023/07/22 01:52:20;;;;;;;15.98;11.75;;;;;;;;;;8329340;28;20045;-87
2023/07/22 01:56:25;;;;;;;19.40;12.18;;;;;;;;;;8342487;28;20074;-87
2023/07/22 02:00:28;;;;;;;20.48;13.40;;;;;;;;;;8328466;28;20053;-87
2023/07/22 02:04:31;;;;;;;23.50;15.02;;;;;;;;;;8328871;28;20063;-87
2023/07/22 02:08:34;;;;;;;37.47;20.08;;;;;;;;;;8373576;27;20045;-87
2023/07/22 02:12:38;;;;;;;29.67;18.63;;;;;;;;;;8328553;28;20507;-86
2023/07/22 02:16:41;;;;;;;36.65;21.08;;;;;;;;;;8341432;28;20065;-87
2023/07/22 02:20:44;;;;;;;40.10;20.23;;;;;;;;;;8328175;28;20256;-88
2023/07/22 02:24:47;;;;;;;39.47;21.95;;;;;;;;;;8345546;28;20037;-87
2023/07/22 02:28:51;;;;;;;41.95;22.20;;;;;;;;;;8336124;28;20119;-87
2023/07/22 02:32:54;;;;;;;46.25;24.17;;;;;;;;;;8327404;28;20053;-87
2023/07/22 02:36:57;;;;;;;43.60;23.08;;;;;;;;;;8340447;28;20060;-87
2023/07/22 02:41:05;;;;;;;48.90;23.35;;;;;;;;;;8327985;28;20041;-87
2023/07/22 02:45:11;;;;;;;42.95;23.48;;;;;;;;;;8327900;28;20069;-87
2023/07/22 02:49:15;;;;;;;46.55;23.40;;;;;;;;;;8342712;28;20137;-87
2023/07/22 02:53:18;;;;;;;48.58;24.10;;;;;;;;;;8340566;28;20046;-87
2023/07/22 02:57:21;;;;;;;39.25;21.50;;;;;;;;;;8340620;28;20563;-87
2023/07/22 03:01:26;;;;;;;39.22;20.98;;;;;;;;;;8334594;28;20128;-87
2023/07/22 03:05:29;;;;;;;33.67;18.10;;;;;;;;;;8336230;28;20120;-85
2023/07/22 03:09:32;;;;;;;32.20;18.45;;;;;;;;;;8336979;28;20049;-86
2023/07/22 03:13:35;;;;;;;29.92;18.35;;;;;;;;;;8327240;28;20488;-86
2023/07/22 03:17:41;;;;;;;32.30;18.42;;;;;;;;;;8327779;28;20124;-87
2023/07/22 03:21:44;;;;;;;32.97;19.85;;;;;;;;;;8330258;28;20128;-86
2023/07/22 03:25:48;;;;;;;32.03;18.83;;;;;;;;;;8335819;28;20049;-87
2023/07/22 03:29:50;;;;;;;35.35;19.30;;;;;;;;;;8352641;28;20050;-86
2023/07/22 03:33:55;;;;;;;30.63;18.38;;;;;;;;;;8326194;28;20113;-87
2023/07/22 03:37:58;;;;;;;28.38;16.70;;;;;;;;;;8326146;28;20042;-86
2023/07/22 03:42:01;;;;;;;24.17;16.80;;;;;;;;;;8324968;28;20037;-87
2023/07/22 03:46:03;;;;;;;22.27;14.38;;;;;;;;;;8326023;28;20041;-85
2023/07/22 03:50:09;;;;;;;24.05;16.05;;;;;;;;;;8325903;28;20477;-86
2023/07/22 03:54:12;;;;;;;22.25;15.25;;;;;;;;;;8325822;28;20049;-87
2023/07/22 03:58:15;;;;;;;17.85;13.85;;;;;;;;;;8325785;28;20057;-87
2023/07/22 04:02:18;;;;;;;20.77;14.43;;;;;;;;;;8325643;28;20129;-86
2023/07/22 04:06:22;;;;;;;19.75;13.90;;;;;;;;;;8331186;28;20048;-87
2023/07/22 04:10:25;;;;;;;17.95;13.88;;;;;;;;;;8327972;28;20498;-86
2023/07/22 04:14:28;;;;;;;18.23;13.25;;;;;;;;;;8338431;28;20136;-88
2023/07/22 04:18:34;;;;;;;18.45;13.13;;;;;;;;;;8325275;28;20045;-87
2023/07/22 04:22:38;;;;;;;18.67;13.70;;;;;;;;;;8325365;28;20516;-87
2023/07/22 04:26:44;;;;;;;19.90;13.35;;;;;;;;;;8325661;28;20045;-88
2023/07/22 04:30:57;;;;;;;16.52;13.35;;;;;;;;;;8325083;28;20049;-87
2023/07/22 04:35:00;;;;;;;17.98;11.70;;;;;;;;;;8336432;28;20396;-88
2023/07/22 04:39:06;;;;;;;13.60;11.43;;;;;;;;;;8329393;28;20445;-87
2023/07/22 04:43:08;;;;;;;16.75;10.85;;;;;;;;;;8346874;28;20613;-86
2023/07/22 04:47:12;;;;;;;14.65;11.27;;;;;;;;;;8324138;28;20048;-87
2023/07/22 04:51:14;;;;;;;14.02;11.57;;;;;;;;;;8332304;28;20057;-86
2023/07/22 04:55:19;;;;;;;13.27;11.60;;;;;;;;;;8343401;28;20050;-87
2023/07/22 04:59:21;;;;;;;16.45;11.00;;;;;;;;;;8330256;28;20049;-86
2023/07/22 05:03:26;;;;;;;15.60;11.50;;;;;;;;;;8330610;28;20060;-88
2023/07/22 05:07:29;;;;;;;13.55;10.90;;;;;;;;;;8329961;28;20071;-88
2023/07/22 05:11:33;;;;;;;12.90;10.70;;;;;;;;;;8330357;28;20056;-87
2023/07/22 05:15:36;;;;;;;12.73;10.45;;;;;;;;;;8330112;28;20124;-87
2023/07/22 05:19:39;;;;;;;13.20;10.57;;;;;;;;;;8343174;28;20456;-87
2023/07/22 05:23:42;;;;;;;13.65;10.52;;;;;;;;;;8337878;28;20057;-87
2023/07/22 05:27:46;;;;;;;12.95;9.98;;;;;;;;;;8350973;28;20056;-87
2023/07/22 05:31:49;;;;;;;11.93;9.80;;;;;;;;;;8335269;28;20053;-87
2023/07/22 05:35:52;;;;;;;11.77;10.05;;;;;;;;;;8330429;28;20053;-87
2023/07/22 05:39:55;;;;;;;11.35;9.25;;;;;;;;;;8332218;28;20060;-86
2023/07/22 05:44:00;;;;;;;12.95;9.40;;;;;;;;;;8346721;28;20135;-86
2023/07/22 05:48:06;;;;;;;13.77;9.27;;;;;;;;;;8359740;28;20045;-88
2023/07/22 05:52:09;;;;;;;12.07;9.27;;;;;;;;;;8348611;28;20049;-87
2023/07/22 05:56:12;;;;;;;12.27;8.68;;;;;;;;;;8354073;28;20155;-86
2023/07/22 06:00:17;;;;;;;9.95;7.95;;;;;;;;;;8356780;28;20041;-86
2023/07/22 06:04:20;;;;;;;11.23;8.02;;;;;;;;;;8360477;28;20124;-88
2023/07/22 06:08:23;;;;;;;9.93;6.82;;;;;;;;;;8348001;28;20121;-88
2023/07/22 06:12:26;;;;;;;10.20;6.20;;;;;;;;;;8339714;28;20046;-87
2023/07/22 06:16:30;;;;;;;9.45;6.28;;;;;;;;;;8328646;28;20120;-86
2023/07/22 06:20:33;;;;;;;14.00;6.60;;;;;;;;;;8328223;28;20057;-86
2023/07/22 06:24:36;;;;;;;8.10;4.95;;;;;;;;;;8328475;28;20061;-87
2023/07/22 06:28:39;;;;;;;7.05;4.40;;;;;;;;;;8329164;28;20045;-89
2023/07/22 06:32:44;;;;;;;6.93;3.80;;;;;;;;;;8357957;28;20109;-90
2023/07/22 06:36:46;;;;;;;5.78;3.55;;;;;;;;;;8341070;28;20630;-87
2023/07/22 06:40:49;;;;;;;6.10;4.10;;;;;;;;;;8327757;28;20087;-88
2023/07/22 06:44:52;;;;;;;7.03;3.50;;;;;;;;;;8328372;28;20564;-87
2023/07/22 06:48:56;;;;;;;5.38;3.67;;;;;;;;;;8327943;28;20046;-88
2023/07/22 06:52:59;;;;;;;6.13;4.03;;;;;;;;;;8340650;28;20053;-87
2023/07/22 06:57:02;;;;;;;5.63;3.90;;;;;;;;;;8341584;28;20041;-86
2023/07/22 07:01:05;;;;;;;5.25;3.63;;;;;;;;;;8327409;28;20053;-89
2023/07/22 07:05:10;;;;;;;10.43;3.67;;;;;;;;;;8333312;28;20049;-89
2023/07/22 07:09:13;;;;;;;5.03;3.20;;;;;;;;;;8357281;28;20093;-86
2023/07/22 07:13:17;;;;;;;6.40;3.53;;;;;;;;;;8329562;28;20501;-87
2023/07/22 07:17:20;;;;;;;8.43;3.55;;;;;;;;;;8326508;28;20533;-89
2023/07/22 07:21:25;;;;;;;6.53;3.10;;;;;;;;;;8327097;28;20573;-89
2023/07/22 07:25:28;;;;;;;3.72;2.67;;;;;;;;;;8328039;28;20069;-85
2023/07/22 07:29:31;;;;;;;3.72;2.40;;;;;;;;;;8339183;28;20537;-85
2023/07/22 07:33:34;;;;;;;4.45;2.75;;;;;;;;;;8359222;28;20072;-88
2023/07/22 07:37:38;;;;;;;4.55;2.53;;;;;;;;;;8332779;28;20147;-85
2023/07/22 07:41:41;;;;;;;4.38;2.83;;;;;;;;;;8345701;28;20170;-87
2023/07/22 07:45:44;;;;;;;5.32;2.80;;;;;;;;;;8331331;28;20182;-88
2023/07/22 07:49:47;;;;;;;5.72;2.38;;;;;;;;;;8339773;28;20077;-86
2023/07/22 07:53:52;;;;;;;6.93;2.70;;;;;;;;;;8325886;28;20045;-86
2023/07/22 07:57:55;;;;;;;3.35;2.45;;;;;;;;;;8326127;28;20084;-87
2023/07/22 08:01:58;;;;;;;5.65;2.65;;;;;;;;;;8339594;28;20407;-87
2023/07/22 08:06:06;;;;;;;6.28;2.38;;;;;;;;;;8341670;28;20048;-90
2023/07/22 08:10:12;;;;;;;4.13;2.33;;;;;;;;;;8355177;28;20131;-89
2023/07/22 08:14:16;;;;;;;2.85;2.10;;;;;;;;;;8353480;28;20045;-89
2023/07/22 08:18:19;;;;;;;4.55;2.58;;;;;;;;;;8340118;28;20556;-89
2023/07/22 08:22:22;;;;;;;4.53;2.30;;;;;;;;;;8333093;28;20044;-87
2023/07/22 08:26:27;;;;;;;4.00;2.55;;;;;;;;;;8325181;28;20568;-88
2023/07/22 08:30:30;;;;;;;3.35;2.55;;;;;;;;;;8334741;28;20064;-85
2023/07/22 08:34:33;;;;;;;3.42;2.13;;;;;;;;;;8329061;28;20160;-86
2023/07/22 08:38:36;;;;;;;3.33;2.00;;;;;;;;;;8323839;28;20116;-89
2023/07/22 08:42:42;;;;;;;6.53;2.30;;;;;;;;;;8323171;28;20149;-88
2023/07/22 08:46:47;;;;;;;3.38;1.85;;;;;;;;;;8323572;28;20077;-85
2023/07/22 08:50:54;;;;;;;3.88;1.95;;;;;;;;;;8337491;28;20109;-89
2023/07/22 08:54:57;;;;;;;3.80;1.98;;;;;;;;;;8347226;28;20037;-91
2023/07/22 08:59:02;;;;;;;4.90;1.83;;;;;;;;;;8357290;28;20377;-90
2023/07/22 09:03:06;;;;;;;3.60;1.80;;;;;;;;;;8357711;28;20096;-89
2023/07/22 09:07:11;;;;;;;3.65;2.00;;;;;;;;;;8326810;28;20048;-89
2023/07/22 09:11:14;;;;;;;4.63;2.08;;;;;;;;;;8337495;28;20053;-90
2023/07/22 09:15:19;;;;;;;5.45;2.10;;;;;;;;;;8324580;28;20488;-90
2023/07/22 09:19:22;;;;;;;2.58;1.80;;;;;;;;;;8324046;28;20056;-88
2023/07/22 09:23:34;;;;;;;2.20;1.90;;;;;;;;;;8323881;28;20048;-89
2023/07/22 09:27:37;;;;;;;3.65;1.95;;;;;;;;;;8324608;28;20084;-89
2023/07/22 09:31:50;;;;;;;4.18;2.08;;;;;;;;;;8323886;28;20122;-88
2023/07/22 09:35:53;;;;;;;2.13;1.80;;;;;;;;;;8337140;28;20552;-89
2023/07/22 09:39:56;;;;;;;2.78;1.73;;;;;;;;;;8328943;28;20481;-89
2023/07/22 09:44:03;;;;;;;6.43;1.75;;;;;;;;;;8339163;28;20139;-90
2023/07/22 09:48:10;;;;;;;2.35;1.67;;;;;;;;;;8347039;28;20044;-90
2023/07/22 09:52:13;;;;;;;4.57;1.85;;;;;;;;;;8339682;28;20056;-88
2023/07/22 09:56:16;;;;;;;4.35;1.88;;;;;;;;;;8356742;28;20124;-91
2023/07/22 10:00:20;;;;;;;3.15;2.10;;;;;;;;;;8336579;28;20063;-90
2023/07/22 10:04:29;;;;;;;5.15;2.10;;;;;;;;;;8338840;28;20582;-90
2023/07/22 10:08:35;;;;;;;2.45;1.95;;;;;;;;;;8387256;27;20136;-89
2023/07/22 10:12:39;;;;;;;3.28;2.05;;;;;;;;;;8349098;28;20149;-89
2023/07/22 10:16:42;;;;;;;2.33;1.85;;;;;;;;;;8348293;28;20077;-90
2023/07/22 10:20:49;;;;;;;4.93;2.20;;;;;;;;;;8351555;28;20156;-89
2023/07/22 10:24:55;;;;;;;2.58;1.92;;;;;;;;;;8351371;28;20650;-90
2023/07/22 10:28:59;;;;;;;4.05;2.08;;;;;;;;;;8354975;28;20156;-87
2023/07/22 10:33:02;;;;;;;4.78;1.92;;;;;;;;;;8347387;28;20131;-87
2023/07/22 10:37:11;;;;;;;3.65;2.17;;;;;;;;;;8347887;28;20483;-86
2023/07/22 10:41:16;;;;;;;2.95;1.90;;;;;;;;;;8345238;28;20178;-89
2023/07/22 10:45:31;;;;;;;2.83;2.00;;;;;;;;;;8348125;28;20484;-88
2023/07/22 10:49:49;;;;;;;4.78;2.00;;;;;;;;;;8352894;28;20045;-88
2023/07/22 10:53:54;;;;;;;3.05;2.00;;;;;;;;;;8350699;28;20051;-86
2023/07/22 10:58:05;;;;;;;4.70;1.90;;;;;;;;;;8352949;28;20045;-88
2023/07/22 11:02:09;;;;;;;;;;;;;;;;;;8352517;27;20278;-86
2023/07/22 11:06:16;;;;;;;4.88;2.13;;;;;;;;;;8353265;28;19929;-86
2023/07/22 11:10:20;;;;;;;2.92;1.88;;;;;;;;;;8346972;28;20049;-86
2023/07/22 11:14:24;;;;;;;3.72;1.88;;;;;;;;;;8349682;28;20068;-87
2023/07/22 11:18:37;;;;;;;4.32;2.00;;;;;;;;;;8351489;28;20076;-86
2023/07/22 11:22:41;;;;;;;4.03;2.22;;;;;;;;;;8350605;28;20040;-86
2023/07/22 11:26:49;;;;;;;3.63;2.10;;;;;;;;;;8347847;28;20050;-85
2023/07/22 11:30:53;;;;;;;2.25;1.80;;;;;;;;;;8352292;28;20139;-85
2023/07/22 11:34:56;;;;;;;4.80;2.10;;;;;;;;;;8351202;28;20457;-88
2023/07/22 11:39:04;;;;;;;4.38;1.90;;;;;;;;;;8353333;28;20061;-85
2023/07/22 11:43:08;;;;;;;4.05;2.40;;;;;;;;;;8349739;28;20045;-85
2023/07/22 11:47:12;;;;;;;3.38;1.80;;;;;;;;;;8358355;28;20056;-88
2023/07/22 11:51:17;;;;;;;2.50;2.03;;;;;;;;;;8358223;28;20068;-88
2023/07/22 11:55:24;;;;;;;2.90;2.22;;;;;;;;;;8357729;28;20049;-85
2023/07/22 11:59:37;;;;;;;3.65;2.00;;;;;;;;;;8353862;28;20140;-90
2023/07/22 12:03:41;;;;;;;3.13;2.25;;;;;;;;;;8337573;28;20163;-88
2023/07/22 12:07:44;;;;;;;4.30;2.10;;;;;;;;;;8339658;28;20072;-88
2023/07/22 12:11:49;;;;;;;5.32;2.20;;;;;;;;;;8338954;28;20552;-83
2023/07/22 12:16:02;;;;;;;4.10;2.40;;;;;;;;;;8325280;28;20073;-86
2023/07/22 12:20:07;;;;;;;3.58;2.40;;;;;;;;;;8335207;28;20496;-84
2023/07/22 12:24:19;;;;;;;5.72;2.53;;;;;;;;;;8354713;28;20049;-84
2023/07/22 12:28:30;;;;;;;4.97;2.43;;;;;;;;;;8353878;28;20088;-85
2023/07/22 12:32:35;;;;;;;5.53;2.65;;;;;;;;;;8356908;28;20049;-84
2023/07/22 12:36:37;;;;;;;3.05;2.30;;;;;;;;;;8340028;28;20073;-86
2023/07/22 12:40:40;;;;;;;3.90;2.30;;;;;;;;;;8355443;28;20493;-86
2023/07/22 12:44:43;;;;;;;2.65;2.15;;;;;;;;;;8355752;28;20089;-89
2023/07/22 12:48:47;;;;;;;4.45;2.20;;;;;;;;;;8355762;28;20124;-89
2023/07/22 12:52:50;;;;;;;4.03;2.40;;;;;;;;;;8331554;28;20515;-88
2023/07/22 12:56:53;;;;;;;4.32;2.83;;;;;;;;;;8344385;28;20045;-89
2023/07/22 13:00:56;;;;;;;4.05;2.30;;;;;;;;;;8307235;28;20049;-84
2023/07/22 13:05:00;;;;;;;7.80;2.60;;;;;;;;;;8334086;28;20638;-90
2023/07/22 13:09:04;;;;;;;4.80;2.63;;;;;;;;;;8341996;28;20072;-89
2023/07/22 13:13:07;;;;;;;3.33;2.33;;;;;;;;;;8354108;28;20055;-90
2023/07/22 13:17:10;;;;;;;3.85;2.35;;;;;;;;;;8341395;28;20129;-89
2023/07/22 13:21:14;;;;;;;4.75;2.63;;;;;;;;;;8337669;28;20046;-88
2023/07/22 13:25:17;;;;;;;6.40;2.53;;;;;;;;;;8349602;28;20049;-87
2023/07/22 13:29:20;;;;;;;5.68;2.40;;;;;;;;;;8353426;27;20198;-88
2023/07/22 13:33:23;;;;;;;7.22;2.42;;;;;;;;;;8333941;28;20061;-87
2023/07/22 13:37:27;;;;;;;6.22;2.53;;;;;;;;;;8344132;28;20101;-87
2023/07/22 13:41:30;;;;;;;4.07;2.30;;;;;;;;;;8333591;28;20254;-86
2023/07/22 13:45:34;;;;;;;4.45;2.33;;;;;;;;;;8356808;28;20053;-87
2023/07/22 13:49:36;;;;;;;5.07;2.30;;;;;;;;;;8352091;28;20140;-88
2023/07/22 13:53:41;;;;;;;3.85;2.00;;;;;;;;;;8352686;28;20124;-87
2023/07/22 13:57:44;;;;;;;2.67;2.05;;;;;;;;;;8336477;28;20049;-84
2023/07/22 14:01:47;;;;;;;5.03;2.40;;;;;;;;;;8355731;28;20673;-89
2023/07/22 14:05:50;;;;;;;5.65;2.55;;;;;;;;;;8345570;28;20476;-89
2023/07/22 14:09:54;;;;;;;5.07;2.45;;;;;;;;;;8342624;28;20059;-87
2023/07/22 14:13:57;;;;;;;5.55;2.60;;;;;;;;;;8352429;28;20100;-86
2023/07/22 14:18:00;;;;;;;3.97;2.20;;;;;;;;;;8339036;28;20128;-87
2023/07/22 14:22:03;;;;;;;5.05;2.42;;;;;;;;;;8346089;28;20399;-88
2023/07/22 14:26:10;;;;;;;3.17;1.95;;;;;;;;;;8346189;28;20029;-83
2023/07/22 14:30:14;;;;;;;3.40;2.00;;;;;;;;;;8319800;28;20045;-89
2023/07/22 14:34:17;;;;;;;5.47;2.60;;;;;;;;;;8326833;28;20187;-88
2023/07/22 14:38:20;;;;;;;4.32;2.20;;;;;;;;;;8327827;28;20045;-87
2023/07/22 14:42:25;;;;;;;3.90;2.10;;;;;;;;;;8328211;28;20132;-87
2023/07/22 14:46:29;;;;;;;5.00;2.38;;;;;;;;;;8327701;28;20481;-86
2023/07/22 14:50:32;;;;;;;6.20;2.40;;;;;;;;;;8327593;28;20049;-90
2023/07/22 14:54:35;;;;;;;4.82;2.55;;;;;;;;;;8327837;28;20046;-86
2023/07/22 14:58:40;;;;;;;4.53;2.33;;;;;;;;;;8327452;28;20113;-85
2023/07/22 15:02:43;;;;;;;4.72;2.53;;;;;;;;;;8328323;28;20587;-84
2023/07/22 15:06:46;;;;;;;7.85;2.47;;;;;;;;;;8327562;28;20041;-88
2023/07/22 15:10:49;;;;;;;2.42;1.92;;;;;;;;;;8327260;28;20046;-84
2023/07/22 15:14:54;;;;;;;3.83;2.17;;;;;;;;;;8327390;28;20049;-88
2023/07/22 15:18:57;;;;;;;7.40;2.45;;;;;;;;;;8326752;28;20049;-86
2023/07/22 15:23:00;;;;;;;3.95;2.33;;;;;;;;;;8326821;28;20050;-88
2023/07/22 15:27:03;;;;;;;6.90;2.90;;;;;;;;;;8327335;28;20533;-85
2023/07/22 15:31:08;;;;;;;6.35;2.30;;;;;;;;;;8340449;28;20045;-88
2023/07/22 15:35:10;;;;;;;4.15;2.60;;;;;;;;;;8359399;28;20407;-88
2023/07/22 15:39:13;;;;;;;6.13;3.10;;;;;;;;;;8331967;28;20077;-87
2023/07/22 15:43:16;;;;;;;4.65;2.90;;;;;;;;;;8308952;28;20049;-87
2023/07/22 15:47:21;;;;;;;4.88;2.50;;;;;;;;;;8326815;28;20178;-86
2023/07/22 15:51:24;;;;;;;3.42;2.10;;;;;;;;;;8328008;28;20120;-84
2023/07/22 15:55:27;;;;;;;3.38;2.30;;;;;;;;;;8337577;28;20069;-88
2023/07/22 15:59:30;;;;;;;3.05;2.25;;;;;;;;;;8333276;28;20045;-86
2023/07/22 16:03:36;;;;;;;4.97;2.70;;;;;;;;;;8331409;28;20049;-88
2023/07/22 16:07:39;;;;;;;3.60;2.40;;;;;;;;;;8325843;28;20128;-88
2023/07/22 16:11:42;;;;;;;8.23;2.97;;;;;;;;;;8326219;28;20042;-86
2023/07/22 16:15:44;;;;;;;4.35;2.65;;;;;;;;;;8326132;28;20141;-87
2023/07/22 16:19:49;;;;;;;4.63;2.75;;;;;;;;;;8326214;28;20057;-89
2023/07/22 16:23:52;;;;;;;4.85;3.03;;;;;;;;;;8351073;28;20524;-87
2023/07/22 16:27:55;;;;;;;5.50;2.72;;;;;;;;;;8340094;28;20160;-87
2023/07/22 16:31:57;;;;;;;5.95;2.60;;;;;;;;;;8336737;28;20069;-88
2023/07/22 16:36:02;;;;;;;2.67;2.30;;;;;;;;;;8326776;28;20067;-88
2023/07/22 16:40:07;;;;;;;4.90;2.67;;;;;;;;;;8358076;28;20648;-88
2023/07/22 16:44:10;;;;;;;6.07;3.38;;;;;;;;;;8329255;28;20128;-88
2023/07/22 16:48:13;;;;;;;6.55;3.83;;;;;;;;;;8324296;28;20085;-86
2023/07/22 16:52:17;;;;;;;6.05;2.90;;;;;;;;;;8324673;28;20117;-84
2023/07/22 16:56:20;;;;;;;5.68;3.50;;;;;;;;;;8324565;28;20046;-88
2023/07/22 17:00:23;;;;;;;4.45;3.20;;;;;;;;;;8340210;28;20049;-86
2023/07/22 17:04:26;;;;;;;5.82;3.40;;;;;;;;;;8335589;28;20053;-88
2023/07/22 17:08:31;;;;;;;6.22;3.25;;;;;;;;;;8324497;28;20053;-89
2023/07/22 17:12:36;;;;;;;5.63;3.15;;;;;;;;;;8324581;28;20069;-86
2023/07/22 17:16:39;;;;;;;6.68;2.95;;;;;;;;;;8324285;28;20518;-88
2023/07/22 17:20:42;;;;;;;7.97;4.38;;;;;;;;;;8306919;28;20088;-86
2023/07/22 17:24:46;;;;;;;6.22;3.25;;;;;;;;;;8324007;28;20045;-89
2023/07/22 17:28:50;;;;;;;5.15;2.90;;;;;;;;;;8324290;28;20052;-88
2023/07/22 17:32:53;;;;;;;4.15;2.80;;;;;;;;;;8323940;28;20084;-84
2023/07/22 17:36:57;;;;;;;6.15;3.10;;;;;;;;;;8332953;28;20051;-86
2023/07/22 17:41:02;;;;;;;5.20;2.90;;;;;;;;;;8341388;28;20091;-89
2023/07/22 17:45:07;;;;;;;5.38;3.08;;;;;;;;;;8323927;28;20512;-88
2023/07/22 17:49:10;;;;;;;6.40;3.13;;;;;;;;;;8323711;28;20409;-89
2023/07/22 17:53:14;;;;;;;14.73;5.88;;;;;;;;;;8323747;28;20049;-84
2023/07/22 17:57:20;;;;;;;10.48;3.92;;;;;;;;;;8352776;28;20049;-90
2023/07/22 18:01:24;;;;;;;4.57;3.03;;;;;;;;;;8360690;28;20189;-86
2023/07/22 18:05:29;;;;;;;5.32;2.78;;;;;;;;;;8358567;28;20045;-86
2023/07/22 18:09:32;;;;;;;6.53;3.20;;;;;;;;;;8339149;28;20047;-84
2023/07/22 18:13:37;;;;;;;6.25;3.38;;;;;;;;;;8332077;28;20046;-88
2023/07/22 18:17:41;;;;;;;5.47;3.60;;;;;;;;;;8328882;28;20105;-89
2023/07/22 18:21:45;;;;;;;7.18;4.45;;;;;;;;;;8329094;28;20046;-88
2023/07/22 18:25:49;;;;;;;10.32;4.32;;;;;;;;;;8328235;28;20052;-88
2023/07/22 18:29:58;;;;;;;6.50;3.92;;;;;;;;;;8332357;28;20469;-88
2023/07/22 18:34:01;;;;;;;6.78;3.63;;;;;;;;;;8361357;28;20136;-88
2023/07/22 18:38:05;;;;;;;9.05;3.58;;;;;;;;;;8311908;28;20508;-82
2023/07/22 18:42:09;;;;;;;8.52;4.72;;;;;;;;;;8328189;28;20408;-86
2023/07/22 18:46:23;;;;;;;6.63;4.57;;;;;;;;;;8327923;28;20132;-86
2023/07/22 18:50:26;;;;;;;9.27;5.00;;;;;;;;;;8327963;28;20048;-87
2023/07/22 18:54:30;;;;;;;8.05;4.70;;;;;;;;;;8309954;28;20044;-88
2023/07/22 18:58:35;;;;;;;6.35;4.05;;;;;;;;;;8327481;28;20061;-87
2023/07/22 19:02:40;;;;;;;6.95;4.45;;;;;;;;;;8327660;28;20061;-89
2023/07/22 19:06:45;;;;;;;12.32;6.90;;;;;;;;;;8327973;28;20073;-87
2023/07/22 19:10:49;;;;;;;16.25;9.20;;;;;;;;;;8334684;28;20484;-83
2023/07/22 19:14:54;;;;;;;7.63;5.45;;;;;;;;;;8345705;28;20071;-89
2023/07/22 19:19:02;;;;;;;16.98;8.63;;;;;;;;;;8332115;28;20045;-85
2023/07/22 19:23:06;;;;;;;26.00;11.82;;;;;;;;;;8327245;28;20053;-86
2023/07/22 19:27:10;;;;;;;19.17;11.07;;;;;;;;;;8340187;28;20450;-88
2023/07/22 19:31:14;;;;;;;22.05;12.48;;;;;;;;;;8327054;28;20485;-86
2023/07/22 19:35:21;;;;;;;21.27;13.05;;;;;;;;;;8326449;28;20153;-82
2023/07/22 19:39:27;;;;;;;18.42;8.77;;;;;;;;;;8327338;28;20061;-85
2023/07/22 19:43:32;;;;;;;21.52;11.82;;;;;;;;;;8335709;28;20135;-88
2023/07/22 19:47:35;;;;;;;16.02;10.32;;;;;;;;;;8329614;28;20050;-88
2023/07/22 19:51:40;;;;;;;15.25;9.48;;;;;;;;;;8326302;28;20041;-88
2023/07/22 19:55:44;;;;;;;11.98;7.63;;;;;;;;;;8339127;28;20461;-82
2023/07/22 19:59:48;;;;;;;14.45;6.80;;;;;;;;;;8326009;28;20057;-85
2023/07/22 20:03:52;;;;;;;9.45;5.70;;;;;;;;;;8328745;28;20094;-88
2023/07/22 20:07:58;;;;;;;7.32;5.00;;;;;;;;;;8358457;28;20053;-86
2023/07/22 20:12:02;;;;;;;11.23;6.25;;;;;;;;;;8341536;28;20042;-87
2023/07/22 20:16:07;;;;;;;7.63;5.07;;;;;;;;;;8339428;28;20072;-89
2023/07/22 20:20:11;;;;;;;8.50;5.18;;;;;;;;;;8325416;28;20033;-82
2023/07/22 20:24:16;;;;;;;6.85;4.80;;;;;;;;;;8324777;28;20061;-89
2023/07/22 20:28:21;;;;;;;7.03;5.40;;;;;;;;;;8325546;28;20041;-86
2023/07/22 20:32:25;;;;;;;8.63;5.90;;;;;;;;;;8325297;28;20144;-86
2023/07/22 20:36:28;;;;;;;7.70;4.97;;;;;;;;;;8325017;28;20141;-84
2023/07/22 20:40:33;;;;;;;10.73;5.70;;;;;;;;;;8325623;28;20060;-88
2023/07/22 20:44:37;;;;;;;8.15;5.18;;;;;;;;;;8331507;28;20068;-82
2023/07/22 20:48:42;;;;;;;9.43;5.70;;;;;;;;;;8332646;28;20140;-88
2023/07/22 20:52:46;;;;;;;7.45;5.80;;;;;;;;;;8325633;28;20446;-88
2023/07/22 20:56:51;;;;;;;8.35;6.25;;;;;;;;;;8325502;28;20049;-82
2023/07/22 21:00:55;;;;;;;9.23;6.32;;;;;;;;;;8307176;28;20124;-85
2023/07/22 21:04:57;;;;;;;10.07;5.85;;;;;;;;;;8325294;28;20573;-83
2023/07/22 21:09:01;;;;;;;13.75;6.88;;;;;;;;;;8331171;28;20045;-87
2023/07/22 21:13:06;;;;;;;11.75;6.68;;;;;;;;;;8330702;28;20046;-86
2023/07/22 21:17:09;;;;;;;9.38;6.10;;;;;;;;;;8347516;28;20069;-89
2023/07/22 21:21:15;;;;;;;9.05;5.85;;;;;;;;;;8335566;28;20092;-82
2023/07/22 21:25:18;;;;;;;9.15;6.50;;;;;;;;;;8308252;28;20081;-82
2023/07/22 21:29:22;;;;;;;8.60;6.18;;;;;;;;;;8337209;28;20045;-85
2023/07/22 21:33:25;;;;;;;9.90;6.60;;;;;;;;;;8332146;28;20132;-82
2023/07/22 21:37:28;;;;;;;9.90;6.50;;;;;;;;;;8349481;28;20041;-87
2023/07/22 21:41:31;;;;;;;9.55;7.20;;;;;;;;;;8363105;28;20045;-83
2023/07/22 21:45:35;;;;;;;8.00;6.40;;;;;;;;;;8362833;28;20449;-87
2023/07/22 21:49:38;;;;;;;11.65;6.68;;;;;;;;;;8355728;28;20069;-88
2023/07/22 21:53:41;;;;;;;9.90;6.43;;;;;;;;;;8330198;28;20497;-84
2023/07/22 21:57:47;;;;;;;9.48;6.55;;;;;;;;;;8342152;28;20044;-87
2023/07/22 22:01:51;;;;;;;10.13;6.78;;;;;;;;;;8329268;28;20045;-87
2023/07/22 22:05:58;;;;;;;12.93;7.28;;;;;;;;;;8329035;28;20046;-88
2023/07/22 22:10:01;;;;;;;13.95;7.53;;;;;;;;;;8328761;28;20046;-88
2023/07/22 22:14:05;;;;;;;13.07;7.93;;;;;;;;;;8329536;28;20203;-82
2023/07/22 22:18:10;;;;;;;11.57;7.93;;;;;;;;;;8329025;28;20053;-87
2023/07/22 22:22:13;;;;;;;9.73;7.38;;;;;;;;;;8328513;28;20068;-82
2023/07/22 22:26:15;;;;;;;10.60;7.25;;;;;;;;;;8330208;28;20049;-84
2023/07/22 22:30:18;;;;;;;10.38;6.90;;;;;;;;;;8339924;28;20094;-88
2023/07/22 22:34:23;;;;;;;10.45;6.38;;;;;;;;;;8342654;28;20049;-84
2023/07/22 22:38:26;;;;;;;9.40;6.35;;;;;;;;;;8361041;28;20055;-86
2023/07/22 22:42:29;;;;;;;10.82;6.68;;;;;;;;;;8333488;28;20462;-83
2023/07/22 22:46:32;;;;;;;9.63;6.90;;;;;;;;;;8335447;28;20445;-83
2023/07/22 22:50:36;;;;;;;9.63;6.82;;;;;;;;;;8333101;28;20046;-83
2023/07/22 22:54:39;;;;;;;9.68;6.20;;;;;;;;;;8336031;28;20137;-87
2023/07/22 22:58:41;;;;;;;10.73;6.57;;;;;;;;;;8332747;28;20075;-83
2023/07/22 23:02:46;;;;;;;10.68;7.07;;;;;;;;;;8327552;28;20041;-84
2023/07/22 23:06:50;;;;;;;9.13;6.82;;;;;;;;;;8340714;28;20129;-87
2023/07/22 23:10:54;;;;;;;9.57;6.30;;;;;;;;;;8328056;28;20602;-87
2023/07/22 23:14:58;;;;;;;9.90;6.78;;;;;;;;;;8329809;28;20532;-86
2023/07/22 23:19:01;;;;;;;11.95;7.65;;;;;;;;;;8350972;28;20052;-85
2023/07/22 23:23:05;;;;;;;10.55;6.68;;;;;;;;;;8310896;28;20052;-86
2023/07/22 23:27:08;;;;;;;9.70;6.95;;;;;;;;;;8327379;28;20042;-83
2023/07/22 23:31:12;;;;;;;10.32;7.20;;;;;;;;;;8340020;28;20129;-88
2023/07/22 23:35:15;;;;;;;9.88;7.05;;;;;;;;;;8334932;28;20049;-88
2023/07/22 23:39:20;;;;;;;9.55;6.35;;;;;;;;;;8344665;28;20140;-83
2023/07/22 23:43:23;;;;;;;11.98;7.88;;;;;;;;;;8339756;28;20049;-82
2023/07/22 23:47:26;;;;;;;12.05;7.70;;;;;;;;;;8326275;28;20088;-87
2023/07/22 23:51:29;;;;;;;14.52;7.47;;;;;;;;;;8326237;28;20050;-84
2023/07/22 23:55:33;;;;;;;11.13;7.07;;;;;;;;;;8326705;28;20454;-84
2023/07/22 23:59:39;;;;;;;10.50;7.50;;;;;;;;;;8326017;28;20053;-84
